Flight Track Log - Related Links

Times and Time Zones

All times are in EDT time to prevent confusion due to time zone crossing. See the GJS3706 flight status page for this flight to view local times or setup timezone preferences in your user account.

Time Position Orientation Groundspeed Altitude Reporting Facility
EDT Latitude Longitude Course Direction KTS MPH feet Rate Location/Type
Sun 11:22:00 AM 44.2729 -74.2511 255° West  Level FlightAware Approximate
Sun 11:23:00 AM 44.2504 -74.3892 258° West  Level FlightAware Approximate
Sun 11:24:00 AM 44.2287 -74.5275 257° West  Level FlightAware Approximate
Sun 11:25:00 AM 44.2037 -74.6647 254° West  Level FlightAware Approximate
Sun 11:26:00 AM 44.1765 -74.8010 255° West  Level FlightAware Approximate
Sun 11:27:00 AM 44.1493 -74.9373 255° West  Level FlightAware Approximate
Sun 11:28:00 AM 44.1220 -75.0735 254° West  Level FlightAware Approximate
Sun 11:29:00 AM 44.1024 -75.2000 259° West  Level FlightAware Approximate
Sun 11:30:00 AM 44.0784 -75.3251 255° West  Level FlightAware Approximate
Sun 11:31:00 AM 44.0534 -75.4498 254° West  Level FlightAware Approximate
Sun 11:32:00 AM 44.0294 -75.5748 255° West  Level FlightAware Approximate
Sun 11:33:00 AM 44.0054 -75.6998 255° West  Level FlightAware Approximate
Sun 11:34:00 AM 43.9813 -75.8246 255° West  Level FlightAware Approximate
Sun 11:35:00 AM 43.9611 -75.9506 261° West  Level FlightAware Approximate
Sun 11:36:00 AM 43.9473 -76.0784 263° West  Level FlightAware Approximate
Sun 11:37:00 AM 43.9352 -76.2064 263° West  Level FlightAware Approximate
Sun 11:38:00 AM 43.9230 -76.3344 262° West  Level FlightAware Approximate
Sun 11:39:00 AM 43.9093 -76.4740 262° West  Level FlightAware Approximate
Sun 11:39:02 AM 44.4172 -73.1811 262° West 229 264 3,300  Level Boston Center
Sun 11:40:00 AM 43.8987 -76.6138 263° West  Level FlightAware Approximate
Sun 11:40:02 AM 44.4000 -73.2739 255° West 243 280 5,500  Level Boston Center
Sun 11:41:00 AM 43.8857 -76.7535 263° West  Level FlightAware Approximate
Sun 11:41:02 AM 44.3806 -73.3753 255° West 273 314 8,400  Level Boston Center
Sun 11:42:00 AM 43.8724 -76.8930 263° West  Level FlightAware Approximate
Sun 11:42:02 AM 44.3358 -73.4617 234° Southwest 290 334 10,400  Level Boston Center
Sun 11:43:00 AM 43.8590 -77.0325 262° West  Level FlightAware Approximate
Sun 11:43:02 AM 44.2808 -73.5739 236° Southwest 339 390 11,700  Level Boston Center
Sun 11:44:00 AM 43.8455 -77.1720 262° West  Level FlightAware Approximate
Sun 11:44:02 AM 44.2647 -73.7186 261° West 368 423 13,300  Level Boston Center
Sun 11:45:02 AM 44.2461 -73.8747 261° West 386 444 14,800 1,550 Climbing Boston Center
Sun 11:46:02 AM 44.2253 -74.0364 260° West 414 476 16,400 1,550 Climbing Boston Center
Sun 11:47:02 AM 44.2064 -74.1953 261° West 428 493 17,900 1,300 Climbing Boston Center
Sun 11:48:02 AM 44.1847 -74.3653 260° West 428 493 19,000 1,150 Climbing Boston Center
Sun 11:49:02 AM 44.1631 -74.5353 260° West 439 505 20,200 1,100 Climbing Boston Center
Sun 11:50:02 AM 44.1411 -74.7083 260° West 450 518 21,200 1,150 Climbing Boston Center
Sun 11:51:02 AM 44.1167 -74.8836 259° West 460 529 22,500 1,300 Climbing Boston Center
Sun 11:52:02 AM 44.0939 -75.0592 260° West 466 536 23,800 1,050 Climbing Boston Center
Sun 11:53:02 AM 44.0708 -75.2403 260° West 471 542 24,600 900 Climbing Boston Center
Sun 11:54:02 AM 44.0456 -75.4181 259° West 471 542 25,600 1,000 Climbing Boston Center
Sun 11:55:02 AM 44.0200 -75.5989 259° West 476 548 26,600 1,000 Climbing Boston Center
Sun 11:56:02 AM 43.9961 -75.7822 260° West 483 556 27,600 1,100 Climbing Boston Center
Sun 11:57:02 AM 43.9697 -75.9625 259° West 483 556 28,800 1,150 Climbing Boston Center
Sun 11:58:02 AM 43.9497 -76.1375 261° West 477 549 29,900 1,050 Climbing Boston Center
Sun 11:59:02 AM 43.9333 -76.3153 263° West 477 549 30,900 1,450 Climbing Boston Center
Sun 12:00:02 PM 43.9192 -76.4872 264° West 467 537 32,800 1,500 Climbing Boston Center
Sun 12:01:02 PM 43.9047 -76.6564 263° West 461 531 33,900 872 Climbing Boston Center
Sun 12:01:59 PM 43.8667 -76.8167 252° West 440 506 34,500 718 Climbing Toronto Center
Sun 12:02:59 PM 43.8500 -76.9667 261° West 450 518 35,300 1,000 Climbing Toronto Center
Sun 12:03:59 PM 43.8500 -77.1333 270° West 450 518 36,500 900 Climbing Toronto Center
Sun 12:04:59 PM 43.8667 -77.3167 277° West 430 495 37,100 550 Climbing Toronto Center
Sun 12:05:59 PM 43.9000 -77.4500 289° West 440 506 37,600 450 Climbing Toronto Center
Sun 12:06:59 PM 43.9333 -77.6500 283° West 440 506 38,000 200 Climbing Toronto Center
Sun 12:07:59 PM 43.9500 -77.8000 279° West 440 506 38,000  Level Toronto Center
Sun 12:08:59 PM 43.9500 -77.9667 270° West 430 495 38,000  Level Toronto Center
Sun 12:09:59 PM 43.9167 -78.1333 255° West 430 495 38,000  Level Toronto Center
Sun 12:10:59 PM 43.9000 -78.2833 261° West 430 495 38,000  Level Toronto Center
Sun 12:11:59 PM 43.8833 -78.4500 262° West 430 495 38,000  Level Toronto Center
Sun 12:12:59 PM 43.8667 -78.6167 262° West 430 495 38,000  Level Toronto Center
Sun 12:13:59 PM 43.8500 -78.7833 262° West 430 495 38,000  Level Toronto Center
Sun 12:14:59 PM 43.8167 -78.9333 253° West 430 495 38,000  Level Toronto Center
Sun 12:15:59 PM 43.8000 -79.1167 263° West 430 495 38,000  Level Toronto Center
Sun 12:16:59 PM 43.7833 -79.2667 261° West 430 495 38,000  Level Toronto Center
Sun 12:17:59 PM 43.7500 -79.4333 255° West 420 483 38,000  Level Toronto Center
Sun 12:18:59 PM 43.7333 -79.5833 261° West 430 495 38,000  Level Toronto Center
Sun 12:19:59 PM 43.7167 -79.7667 263° West 430 495 38,000  Level Toronto Center
Sun 12:20:59 PM 43.6833 -79.9167 253° West 430 495 38,000  Level Toronto Center
Sun 12:21:59 PM 43.6667 -80.0667 261° West 420 483 38,000  Level Toronto Center
Sun 12:22:59 PM 43.6333 -80.2333 255° West 430 495 38,000  Level Toronto Center
Sun 12:23:59 PM 43.6167 -80.4000 262° West 430 495 38,000  Level Toronto Center
Sun 12:24:59 PM 43.6000 -80.5500 261° West 430 495 38,000  Level Toronto Center
Sun 12:25:59 PM 43.5667 -80.7167 255° West 430 495 38,000  Level Toronto Center
Sun 12:26:59 PM 43.5333 -80.8833 255° West 430 495 38,000  Level Toronto Center
Sun 12:27:59 PM 43.5167 -81.0667 263° West 430 495 38,000  Level Toronto Center
Sun 12:28:59 PM 43.4833 -81.2167 253° West 430 495 38,000  Level Toronto Center
Sun 12:29:59 PM 43.4667 -81.3500 260° West 430 495 38,000  Level Toronto Center
Sun 12:30:59 PM 43.4333 -81.5333 256° West 430 495 38,000  Level Toronto Center
Sun 12:31:59 PM 43.4000 -81.6833 253° West 420 483 38,000  Level Toronto Center
Sun 12:32:59 PM 43.3000 -81.7667 211° Southwest 430 495 38,000  Level Toronto Center
Sun 12:33:59 PM 43.2000 -81.8500 211° Southwest 430 495 38,000  Level Toronto Center
Sun 12:34:59 PM 43.1000 -81.9333 211° Southwest 420 483 38,000  Level Toronto Center
Sun 12:35:59 PM 43.0167 -82.0500 226° Southwest 420 483 38,000  Level Toronto Center
Sun 12:36:59 PM 43.0000 -82.2167 262° West 420 483 38,000  Level Toronto Center
Sun 12:37:59 PM 43.0000 -82.3667 270° West 430 495 38,000 -200 Level Toronto Center
Sun 12:38:59 PM 43.0000 -82.5500 270° West 440 506 37,600 -650 Descending Toronto Center
Sun 12:39:59 PM 42.9833 -82.7167 262° West 440 506 36,700 -942 Descending Toronto Center
Sun 12:41:00 PM 42.9917 -82.8850 274° West 436 502 35,700 -992 Descending Cleveland Center
Sun 12:42:00 PM 42.9881 -83.0525 268° West 441 507 34,700 -1,000 Descending Cleveland Center
Sun 12:43:00 PM 42.9844 -83.2169 268° West 441 507 33,700 -1,000 Descending Cleveland Center
Sun 12:44:00 PM 42.9783 -83.3842 267° West 441 507 32,700 -850 Descending Cleveland Center
Sun 12:45:00 PM 42.9722 -83.5514 267° West 441 507 32,000 -350 Descending Cleveland Center
Sun 12:46:00 PM 42.9678 -83.7186 268° West 441 507 32,000  Level Cleveland Center
Sun 12:47:00 PM 42.9528 -83.8825 263° West 441 507 32,000  Level Cleveland Center
Sun 12:48:00 PM 42.9375 -84.0461 263° West 441 507 32,000  Level Cleveland Center
Sun 12:49:00 PM 42.9200 -84.2153 262° West 446 513 32,000  Level Cleveland Center
Sun 12:50:00 PM 42.9064 -84.3761 263° West 441 507 32,000  Level Cleveland Center
Sun 12:50:30 PM 42.8986 -84.4450 261° West 443 510 32,000  Level Chicago Center
Sun 12:51:33 PM 42.8817 -84.6106 262° West 443 510 32,000  Level Chicago Center
Sun 12:52:35 PM 42.8642 -84.7767 262° West 444 511 32,000  Level Chicago Center
Sun 12:53:37 PM 42.8436 -84.9733 262° West 437 503 32,000  Level Chicago Center
Sun 12:54:39 PM 42.8264 -85.1392 262° West 440 506 32,000  Level Chicago Center
Sun 12:55:41 PM 42.8081 -85.3025 261° West 439 505 32,000  Level Chicago Center
Sun 12:56:43 PM 42.7900 -85.4658 261° West 435 501 32,000 -968 Level Chicago Center
Sun 12:57:45 PM 42.7642 -85.6256 258° West 432 497 30,000 -2,371 Descending Chicago Center
Sun 12:58:47 PM 42.7356 -85.7814 256° West 425 489 27,100 -2,661 Descending Chicago Center
Sun 12:59:49 PM 42.7078 -85.9322 256° West 415 478 24,500 -2,710 Descending Chicago Center
Sun 01:00:51 PM 42.6764 -86.1069 256° West 399 459 21,500 -2,129 Descending Chicago Center
Sun 01:01:53 PM 42.6503 -86.2475 256° West 388 447 20,100 -1,065 Descending Chicago Center
Sun 01:02:55 PM 42.6236 -86.3847 255° West 378 435 19,300 -1,500 Descending Chicago Center
Sun 01:03:57 PM 42.5994 -86.5197 256° West 372 428 17,000 -2,032 Descending Chicago Center
Sun 01:04:59 PM 42.5742 -86.6506 255° West 362 417 15,100 -1,694 Descending Chicago Center
Sun 01:06:01 PM 42.5497 -86.7722 255° West 340 391 13,500 -1,500 Descending Chicago Center
Sun 01:07:03 PM 42.5186 -86.8833 249° West 320 368 12,000 -1,355 Descending Chicago Center
Sun 01:08:05 PM 42.4836 -87.0117 250° West 308 354 10,700 -968 Descending Chicago Center
Sun 01:09:07 PM 42.4533 -87.1169 249° West 301 346 10,000 -339 Descending Chicago Center
Sun 01:10:09 PM 42.4236 -87.2231 249° West 304 350 10,000  Level Chicago Center
Sun 01:11:11 PM 42.3944 -87.3306 250° West 306 352 10,000 -144 Level Chicago Center
Sun 01:12:14 PM 42.3633 -87.4433 250° West 305 351 9,700 -624 Descending Chicago Center
Sun 01:13:16 PM 42.3308 -87.5458 247° West 303 349 8,700 -968 Descending Chicago Center
Sun 01:14:18 PM 42.2722 -87.6075 218° Southwest 268 308 7,700 -823 Descending Chicago Center
Sun 01:15:20 PM 42.2044 -87.6769 217° Southwest 257 296 7,000 -339 Descending Chicago Center
Sun 01:16:22 PM 42.1544 -87.7294 218° Southwest 231 266 7,000  Level Chicago Center
Sun 01:17:24 PM 42.1103 -87.7756 218° Southwest 212 244 7,000  Level Chicago Center
Sun 01:17:51 PM 42.1000 -87.8167 251° West 214 246 7,000  Level Chicago TRACON
Sun 01:18:51 PM 42.1000 -87.9000 270° West 217 250 7,000  Level Chicago TRACON
Sun 01:19:51 PM 42.1000 -87.9667 270° West 220 253 7,000 -200 Level Chicago TRACON
Sun 01:20:51 PM 42.1000 -88.0500 270° West 218 251 6,600 -1,050 Descending Chicago TRACON
Sun 01:21:51 PM 42.1000 -88.1333 270° West 214 246 4,900 -1,340 Descending Chicago TRACON
Sun 01:22:34 PM 42.0908 -88.1850 257° West 216 249 4,300 -514 Descending Chicago Center
Sun 01:23:36 PM 42.0617 -88.2317 230° Southwest 212 244 4,000 -145 Descending Chicago Center
Sun 01:24:38 PM 42.0122 -88.2169 168° South 194 223 4,000  Level Chicago Center
Sun 01:25:40 PM 41.9847 -88.1456 117° Southeast 180 207 4,000 -432 Level Chicago Center
Sun 01:26:43 PM 41.9836 -88.0792 91° East 182 209 3,100 -912 Descending Chicago Center
Sun 01:27:45 PM 41.9833 -88.0131 90° East 180 207 2,100 -968 Descending Chicago Center

Login

Don't have an account? Register now (free) for customized features, flight alerts, and more!